Time;durP1;ratioP1;P1;durP2;ratioP2;P2;SDS_P1;SDS_P2;PMS_P1;PMS_P2;Temp;Humidity;BMP_temperature;BMP_pressure;BME280_temperature;BME280_humidity;BME280_pressure;Samples;Min_cycle;Max_cycle;Signal;HPM_P1;HPM_P2
2022/08/02 00:01:50;;;;;;;14.20;4.43;;;13.80;99.90;;;;;;5042577;28;20040;-67
2022/08/02 00:04:16;;;;;;;14.55;4.30;;;13.80;99.90;;;;;;5053996;28;20109;-66
2022/08/02 00:06:45;;;;;;;8.18;4.05;;;13.80;99.90;;;;;;5061673;28;20036;-66
2022/08/02 00:09:10;;;;;;;10.73;3.85;;;13.70;99.90;;;;;;5033852;28;20045;-68
2022/08/02 00:11:39;;;;;;;21.00;4.85;;;13.70;99.90;;;;;;5034470;28;20483;-65
2022/08/02 00:14:05;;;;;;;15.38;4.60;;;13.70;99.90;;;;;;5051940;28;20483;-66
2022/08/02 00:16:31;;;;;;;10.23;4.53;;;13.80;99.90;;;;;;5055161;28;20048;-69
2022/08/02 00:18:56;;;;;;;11.25;4.57;;;13.70;99.90;;;;;;5048311;28;20040;-67
2022/08/02 00:21:22;;;;;;;15.38;4.57;;;13.70;99.90;;;;;;5051715;28;20146;-67
2022/08/02 00:23:48;;;;;;;17.02;5.30;;;13.70;99.90;;;;;;5052359;28;20052;-67
2022/08/02 00:26:13;;;;;;;13.27;4.05;;;13.70;99.90;;;;;;5071085;28;20486;-66
2022/08/02 00:28:39;;;;;;;11.07;4.15;;;13.70;99.90;;;;;;5069493;28;20056;-67
2022/08/02 00:31:05;;;;;;;11.82;3.88;;;13.70;99.90;;;;;;5053432;28;20044;-65
2022/08/02 00:33:31;;;;;;;11.90;4.07;;;13.60;99.90;;;;;;5070345;28;20494;-67
2022/08/02 00:35:57;;;;;;;13.10;3.88;;;13.60;99.90;;;;;;5071485;28;20502;-67
2022/08/02 00:38:25;;;;;;;12.60;3.97;;;13.60;99.90;;;;;;5071396;28;20041;-66
2022/08/02 00:40:51;;;;;;;10.60;4.45;;;13.60;99.90;;;;;;5071698;28;20124;-66
2022/08/02 00:43:18;;;;;;;11.25;3.20;;;13.60;99.90;;;;;;5071534;28;20120;-65
2022/08/02 00:45:44;;;;;;;11.82;3.35;;;13.50;99.90;;;;;;5071805;28;20041;-66
2022/08/02 00:48:11;;;;;;;11.38;4.13;;;13.50;99.90;;;;;;5052123;28;20102;-66
2022/08/02 00:50:38;;;;;;;11.70;3.55;;;13.50;99.90;;;;;;5071591;28;20486;-66
2022/08/02 00:53:05;;;;;;;8.95;3.35;;;13.50;99.90;;;;;;5071657;28;20041;-67
2022/08/02 00:55:38;;;;;;;12.55;3.72;;;13.50;99.90;;;;;;5071364;28;20505;-66
2022/08/02 00:58:03;;;;;;;14.68;4.45;;;13.50;99.90;;;;;;5057105;28;20041;-67
2022/08/02 01:00:29;;;;;;;13.68;3.88;;;13.40;99.90;;;;;;5051367;28;20041;-66
2022/08/02 01:02:57;;;;;;;10.80;4.03;;;13.40;99.90;;;;;;5061204;28;20043;-66
2022/08/02 01:05:23;;;;;;;10.38;4.07;;;13.50;99.90;;;;;;5052031;28;20076;-65
2022/08/02 01:07:49;;;;;;;14.98;4.45;;;13.40;99.90;;;;;;5053515;28;20439;-68
2022/08/02 01:10:14;;;;;;;9.95;4.18;;;13.40;99.90;;;;;;5055241;28;20098;-66
2022/08/02 01:12:40;;;;;;;14.98;5.00;;;13.30;99.90;;;;;;5050612;28;20097;-66
2022/08/02 01:15:10;;;;;;;12.05;4.07;;;13.30;99.90;;;;;;5074874;28;20044;-67
2022/08/02 01:18:10;;;;;;;13.38;4.65;;;13.30;99.90;;;;;;5068624;28;20048;-66
2022/08/02 01:21:12;;;;;;;14.07;4.70;;;13.20;99.90;;;;;;5073973;28;20079;-68
2022/08/02 01:24:02;;;;;;;14.65;4.40;;;13.20;99.90;;;;;;5072921;28;20128;-68
2022/08/02 01:26:48;;;;;;;8.40;3.75;;;13.10;99.90;;;;;;5054338;28;20513;-66
2022/08/02 01:29:17;;;;;;;15.32;4.43;;;13.10;99.90;;;;;;5012818;28;20134;-67
2022/08/02 01:32:02;;;;;;;9.60;3.88;;;13.10;99.90;;;;;;5069388;28;20099;-67
2022/08/02 01:34:34;;;;;;;13.35;4.18;;;13.10;99.90;;;;;;5057798;28;20063;-67
2022/08/02 01:37:07;;;;;;;13.52;3.85;;;13.00;99.90;;;;;;5054894;28;20049;-65
2022/08/02 01:39:41;;;;;;;16.55;4.63;;;13.00;99.90;;;;;;5054105;28;20486;-66
2022/08/02 01:42:08;;;;;;;14.73;4.53;;;13.00;99.90;;;;;;5056797;28;20048;-66
2022/08/02 01:44:37;;;;;;;11.45;5.07;;;12.90;99.90;;;;;;5054215;28;20094;-67
2022/08/02 01:47:08;;;;;;;18.17;5.03;;;12.90;99.90;;;;;;5059851;28;20037;-66
2022/08/02 01:49:42;;;;;;;11.40;6.18;;;12.90;99.90;;;;;;5071567;28;20040;-66
2022/08/02 01:52:21;;;;;;;14.32;5.47;;;12.90;99.90;;;;;;5055917;28;20354;-69
2022/08/02 01:54:53;;;;;;;15.13;5.65;;;12.80;99.90;;;;;;5056380;28;20040;-68
2022/08/02 01:57:21;;;;;;;11.57;5.25;;;12.90;99.90;;;;;;5071612;28;20045;-65
2022/08/02 01:59:48;;;;;;;;;;;12.80;99.90;;;;;;5054513;28;20045;-65
2022/08/02 02:02:15;;;;;;;13.15;5.18;;;12.90;99.90;;;;;;5053895;28;19927;-66
2022/08/02 02:04:43;;;;;;;14.23;5.53;;;12.80;99.90;;;;;;5070859;28;20417;-68
2022/08/02 02:07:14;;;;;;;18.70;4.80;;;12.80;99.90;;;;;;5069673;28;20045;-68
2022/08/02 02:09:41;;;;;;;13.20;4.10;;;12.70;99.90;;;;;;5036259;28;20044;-66
2022/08/02 02:12:11;;;;;;;10.73;4.50;;;12.70;99.90;;;;;;5053948;28;20442;-67
2022/08/02 02:14:41;;;;;;;14.20;4.50;;;12.70;99.90;;;;;;5054369;28;20075;-66
2022/08/02 02:17:07;;;;;;;15.18;4.10;;;12.70;99.90;;;;;;5054166;28;20060;-67
2022/08/02 02:19:35;;;;;;;11.38;4.43;;;12.70;99.90;;;;;;5056285;28;20533;-66
2022/08/02 02:22:01;;;;;;;18.60;4.90;;;12.70;99.90;;;;;;5053707;28;20049;-66
2022/08/02 02:24:27;;;;;;;11.63;4.60;;;12.70;99.90;;;;;;5070735;28;20097;-67
2022/08/02 02:26:53;;;;;;;11.77;4.78;;;12.70;99.90;;;;;;5073470;28;20045;-66
2022/08/02 02:29:26;;;;;;;8.45;4.30;;;12.70;99.90;;;;;;5069327;28;20125;-68
2022/08/02 02:31:54;;;;;;;13.45;4.20;;;12.70;99.90;;;;;;5053817;28;20048;-67
2022/08/02 02:34:30;;;;;;;11.68;4.32;;;12.70;99.90;;;;;;5065712;28;20063;-66
2022/08/02 02:37:03;;;;;;;15.50;4.45;;;12.70;99.90;;;;;;5070836;28;20244;-66
2022/08/02 02:39:30;;;;;;;15.15;5.07;;;12.70;99.90;;;;;;5069686;28;20486;-68
2022/08/02 02:42:00;;;;;;;17.30;4.72;;;12.70;99.90;;;;;;5053363;28;20045;-66
2022/08/02 02:44:27;;;;;;;13.25;4.55;;;12.70;99.90;;;;;;5053506;28;20045;-67
2022/08/02 02:46:54;;;;;;;13.35;4.70;;;12.70;99.90;;;;;;5053023;28;20041;-66
2022/08/02 02:49:21;;;;;;;10.20;4.43;;;12.70;99.90;;;;;;5041097;28;20040;-66
2022/08/02 02:51:48;;;;;;;10.60;4.57;;;12.70;99.90;;;;;;5053002;28;20044;-67
2022/08/02 02:54:15;;;;;;;13.02;3.88;;;12.70;99.90;;;;;;5053375;28;20103;-67
2022/08/02 02:56:42;;;;;;;17.90;4.28;;;12.70;99.90;;;;;;5051994;28;20047;-66
2022/08/02 02:59:11;;;;;;;8.73;4.15;;;12.70;99.90;;;;;;5053330;28;20366;-66
2022/08/02 03:01:39;;;;;;;13.68;4.63;;;12.70;99.90;;;;;;5034988;28;20114;-66
2022/08/02 03:04:06;;;;;;;15.07;5.15;;;12.70;99.90;;;;;;5019289;28;20041;-68
2022/08/02 03:06:34;;;;;;;15.80;5.05;;;12.70;99.90;;;;;;5072152;28;20052;-67
2022/08/02 03:09:00;;;;;;;9.18;3.72;;;12.70;99.90;;;;;;5073010;28;20040;-67
2022/08/02 03:11:28;;;;;;;13.85;4.25;;;12.70;99.90;;;;;;5066515;28;20120;-66
2022/08/02 03:13:58;;;;;;;;;;;12.70;99.90;;;;;;5053201;28;20099;-68
2022/08/02 03:16:25;;;;;;;;;;;12.70;99.90;;;;;;5053748;28;19987;-68
2022/08/02 03:18:50;;;;;;;9.13;3.80;;;12.70;99.90;;;;;;5056605;28;19927;-66
2022/08/02 03:21:16;;;;;;;14.63;4.32;;;12.70;99.90;;;;;;5037960;28;20398;-66
2022/08/02 03:23:42;;;;;;;15.70;3.42;;;12.80;99.90;;;;;;5072139;28;20375;-67
2022/08/02 03:26:09;;;;;;;14.38;4.30;;;12.70;99.90;;;;;;5036882;28;20041;-66
2022/08/02 03:28:34;;;;;;;11.52;4.20;;;12.80;99.90;;;;;;5052312;28;20449;-67
2022/08/02 03:31:00;;;;;;;14.18;3.63;;;12.80;99.90;;;;;;5051560;28;20128;-67
2022/08/02 03:33:27;;;;;;;11.02;3.83;;;12.80;99.90;;;;;;5026166;28;20144;-68
2022/08/02 03:35:57;;;;;;;13.35;3.95;;;12.80;99.90;;;;;;5047827;28;20052;-67
2022/08/02 03:38:24;;;;;;;14.40;3.90;;;12.80;99.90;;;;;;5052478;28;20044;-65
2022/08/02 03:40:50;;;;;;;11.65;3.72;;;12.80;99.90;;;;;;5016634;28;20376;-66
2022/08/02 03:43:16;;;;;;;12.00;4.10;;;12.80;99.90;;;;;;5052116;28;20051;-66
2022/08/02 03:45:46;;;;;;;11.52;3.60;;;12.80;99.90;;;;;;5051408;28;20033;-68
2022/08/02 03:48:14;;;;;;;11.45;4.20;;;12.80;99.90;;;;;;5052159;28;20052;-66
2022/08/02 03:50:41;;;;;;;14.95;4.05;;;12.70;99.90;;;;;;5022225;28;20064;-66
2022/08/02 03:53:10;;;;;;;13.45;4.25;;;12.80;99.90;;;;;;5014267;28;20044;-67
2022/08/02 03:55:39;;;;;;;14.85;4.32;;;12.80;99.90;;;;;;5032059;28;20046;-66
2022/08/02 03:58:05;;;;;;;12.40;4.05;;;12.80;99.90;;;;;;5031938;28;20504;-66
2022/08/02 04:00:31;;;;;;;11.45;3.58;;;12.80;99.90;;;;;;5032476;28;20048;-67
2022/08/02 04:02:57;;;;;;;9.23;3.83;;;12.80;99.90;;;;;;5032110;28;20041;-67
2022/08/02 04:05:24;;;;;;;11.27;3.90;;;12.80;99.90;;;;;;5039392;28;20037;-64
2022/08/02 04:07:50;;;;;;;17.92;4.43;;;12.80;99.90;;;;;;5050107;28;20525;-67
2022/08/02 04:10:19;;;;;;;13.07;4.00;;;12.80;99.90;;;;;;5017982;28;20135;-66
2022/08/02 04:12:45;;;;;;;12.82;4.40;;;12.80;99.90;;;;;;5051417;28;20444;-67
2022/08/02 04:15:13;;;;;;;19.30;4.57;;;12.80;99.90;;;;;;5034693;28;20077;-66
2022/08/02 04:17:47;;;;;;;11.43;3.95;;;12.90;99.90;;;;;;5041193;28;20045;-67
2022/08/02 04:20:21;;;;;;;12.48;3.92;;;12.90;99.90;;;;;;5061417;28;20083;-66
2022/08/02 04:22:53;;;;;;;15.20;4.70;;;12.90;99.90;;;;;;5051023;28;20048;-66
2022/08/02 04:25:20;;;;;;;10.55;4.05;;;12.90;99.90;;;;;;5051562;28;20037;-67
2022/08/02 04:27:46;;;;;;;12.60;3.75;;;12.90;99.90;;;;;;5017752;28;20036;-66
2022/08/02 04:30:14;;;;;;;12.35;3.47;;;12.90;99.90;;;;;;5051810;28;20118;-67
2022/08/02 04:32:41;;;;;;;18.83;5.47;;;12.90;99.90;;;;;;5043207;28;20056;-66
2022/08/02 04:35:07;;;;;;;12.73;3.88;;;12.90;99.90;;;;;;5068313;28;20048;-67
2022/08/02 04:37:34;;;;;;;9.15;3.97;;;13.00;99.90;;;;;;5042369;28;20088;-66
2022/08/02 04:40:00;;;;;;;16.38;4.63;;;13.00;99.90;;;;;;5049735;28;20372;-66
2022/08/02 04:42:26;;;;;;;15.68;4.60;;;13.00;99.90;;;;;;5023271;28;20132;-65
2022/08/02 04:44:52;;;;;;;11.88;4.18;;;13.00;99.90;;;;;;5055657;28;20120;-67
2022/08/02 04:47:21;;;;;;;12.13;3.70;;;13.00;99.90;;;;;;5037331;28;20076;-64
2022/08/02 04:49:47;;;;;;;14.00;3.92;;;13.10;99.90;;;;;;5055265;28;20518;-67
2022/08/02 04:52:13;;;;;;;17.00;4.10;;;13.10;99.90;;;;;;5072419;28;20040;-66
2022/08/02 04:54:38;;;;;;;13.73;4.10;;;13.10;99.90;;;;;;5075121;28;20541;-67
2022/08/02 04:59:48;;;;;;;13.18;4.03;;;13.20;99.90;;;;;;5057468;28;20133;-66
2022/08/02 05:02:14;;;;;;;16.15;3.95;;;13.30;99.90;;;;;;5057400;28;20487;-68
2022/08/02 05:04:40;;;;;;;11.63;3.75;;;13.30;99.90;;;;;;5055405;28;20037;-66
2022/08/02 05:07:06;;;;;;;10.60;3.78;;;13.40;99.90;;;;;;5050965;28;20380;-65
2022/08/02 05:09:34;;;;;;;11.98;3.85;;;13.40;99.90;;;;;;5051244;28;20048;-67
2022/08/02 05:12:00;;;;;;;15.75;4.03;;;13.50;99.90;;;;;;5054735;28;20142;-67
2022/08/02 05:14:26;;;;;;;11.35;3.72;;;13.60;99.90;;;;;;5061673;28;20082;-66
2022/08/02 05:16:51;;;;;;;12.80;3.88;;;13.60;99.90;;;;;;5040295;28;20124;-66
2022/08/02 05:19:17;;;;;;;10.23;3.75;;;13.70;99.90;;;;;;5067350;28;20041;-65
2022/08/02 05:21:43;;;;;;;15.35;3.92;;;13.80;99.90;;;;;;5056201;28;20040;-65
2022/08/02 05:24:09;;;;;;;10.25;4.10;;;13.80;99.90;;;;;;5075194;28;20402;-67
2022/08/02 05:26:34;;;;;;;9.52;3.50;;;14.00;99.90;;;;;;5073925;28;20430;-66
2022/08/02 05:29:00;;;;;;;10.40;3.92;;;14.00;99.90;;;;;;5041462;28;20361;-67
2022/08/02 05:31:26;;;;;;;9.88;3.40;;;14.10;99.90;;;;;;5055100;28;20114;-65
2022/08/02 05:33:51;;;;;;;9.35;3.85;;;14.20;99.90;;;;;;5054961;28;20049;-66
2022/08/02 05:36:17;;;;;;;11.05;3.63;;;14.20;99.90;;;;;;5044439;28;20119;-67
2022/08/02 05:38:43;;;;;;;12.57;3.78;;;14.30;99.90;;;;;;5074545;28;20049;-65
2022/08/02 05:41:08;;;;;;;9.00;3.90;;;14.50;99.90;;;;;;5058624;28;20045;-65
2022/08/02 05:43:34;;;;;;;16.58;4.38;;;14.50;99.90;;;;;;5062538;28;20398;-67
2022/08/02 05:46:00;;;;;;;12.43;3.80;;;14.60;99.90;;;;;;5056567;28;20041;-67
2022/08/02 05:48:25;;;;;;;13.68;3.58;;;14.70;99.90;;;;;;5056312;28;20076;-67
2022/08/02 05:50:58;;;;;;;9.48;3.40;;;14.80;99.90;;;;;;5056590;28;20083;-66
2022/08/02 05:53:35;;;;;;;10.93;3.65;;;14.80;99.90;;;;;;5073583;28;20052;-66
2022/08/02 05:56:31;;;;;;;15.52;4.07;;;14.90;99.90;;;;;;5074145;28;20502;-67
2022/08/02 05:59:18;;;;;;;9.85;3.45;;;15.00;99.90;;;;;;5074155;28;20044;-66
2022/08/02 06:01:48;;;;;;;10.27;3.88;;;15.00;99.90;;;;;;5040125;28;20044;-67
2022/08/02 06:04:24;;;;;;;16.25;3.78;;;15.10;99.90;;;;;;5054025;28;20124;-67
2022/08/02 06:06:54;;;;;;;14.35;3.80;;;15.20;99.90;;;;;;5027560;28;20056;-67
2022/08/02 06:09:21;;;;;;;11.02;3.72;;;15.40;99.90;;;;;;5071081;28;20082;-67
2022/08/02 06:11:51;;;;;;;15.35;4.03;;;15.40;99.90;;;;;;5073594;28;20037;-65
2022/08/02 06:14:18;;;;;;;10.48;3.50;;;15.50;99.90;;;;;;5031244;28;20056;-66
2022/08/02 06:16:48;;;;;;;13.02;3.38;;;15.60;99.90;;;;;;5053649;28;20043;-66
2022/08/02 06:19:16;;;;;;;13.95;3.40;;;15.70;99.90;;;;;;5061607;28;20056;-66
2022/08/02 06:21:46;;;;;;;11.65;3.63;;;15.80;99.90;;;;;;5072023;28;20123;-66
2022/08/02 06:24:16;;;;;;;13.00;4.05;;;15.90;99.90;;;;;;5073571;28;20045;-66
2022/08/02 06:26:42;;;;;;;11.73;3.25;;;16.00;99.90;;;;;;5047497;28;20138;-65
2022/08/02 06:29:10;;;;;;;11.00;3.55;;;16.20;99.90;;;;;;5053365;28;20384;-67
2022/08/02 06:31:36;;;;;;;15.57;3.27;;;16.40;99.90;;;;;;5053651;28;20052;-67
2022/08/02 06:34:02;;;;;;;9.65;3.10;;;16.50;99.90;;;;;;5055424;28;20310;-66
2022/08/02 06:36:46;;;;;;;10.63;2.92;;;16.70;99.90;;;;;;5055206;28;20045;-67
2022/08/02 06:39:31;;;;;;;12.20;2.83;;;16.90;99.90;;;;;;5038515;28;20069;-66
2022/08/02 06:42:00;;;;;;;10.77;3.05;;;17.10;99.90;;;;;;5053388;28;20041;-65
2022/08/02 06:44:26;;;;;;;10.15;2.97;;;17.30;99.90;;;;;;5054443;28;20422;-66
2022/08/02 06:46:51;;;;;;;10.82;2.95;;;17.50;99.90;;;;;;5059132;28;20040;-66
2022/08/02 06:49:17;;;;;;;7.85;2.80;;;17.60;99.90;;;;;;5053126;28;20076;-66
2022/08/02 06:51:43;;;;;;;9.77;3.05;;;17.70;99.90;;;;;;5054909;28;20137;-66
2022/08/02 06:54:08;;;;;;;10.00;2.78;;;17.80;99.90;;;;;;5072065;28;20048;-66
2022/08/02 06:56:34;;;;;;;9.65;2.78;;;18.00;99.90;;;;;;5053687;28;20048;-66
2022/08/02 06:59:00;;;;;;;9.93;3.05;;;18.10;99.90;;;;;;5053288;28;20487;-67
2022/08/02 07:01:25;;;;;;;11.80;3.08;;;18.20;99.90;;;;;;5053272;28;20080;-66
2022/08/02 07:03:51;;;;;;;8.38;2.40;;;18.40;99.90;;;;;;5035005;28;20483;-66
2022/08/02 07:06:17;;;;;;;9.15;2.55;;;18.50;99.90;;;;;;5052712;28;20041;-66
2022/08/02 07:08:43;;;;;;;7.20;2.33;;;18.60;99.90;;;;;;5048849;28;20414;-66
2022/08/02 07:11:09;;;;;;;9.50;2.30;;;18.70;99.90;;;;;;5054713;28;20482;-66
2022/08/02 07:13:35;;;;;;;5.25;2.28;;;18.70;99.90;;;;;;5072623;28;20036;-66
2022/08/02 07:16:03;;;;;;;6.55;2.65;;;18.80;99.90;;;;;;5072599;28;20050;-65
2022/08/02 07:18:29;;;;;;;8.43;2.50;;;18.90;99.90;;;;;;5052241;28;20372;-66
2022/08/02 07:20:54;;;;;;;9.00;2.00;;;19.00;99.90;;;;;;5054756;28;20051;-65
2022/08/02 07:23:20;;;;;;;8.85;2.58;;;19.00;99.90;;;;;;5067425;28;20036;-67
2022/08/02 07:25:46;;;;;;;10.88;2.42;;;19.10;99.90;;;;;;5054464;28;20119;-67
2022/08/02 07:28:14;;;;;;;7.43;1.80;;;19.10;99.90;;;;;;5072551;28;20115;-66
2022/08/02 07:30:43;;;;;;;9.95;2.13;;;19.20;99.90;;;;;;5054410;28;20417;-67
2022/08/02 07:33:09;;;;;;;7.50;2.30;;;19.30;99.90;;;;;;5052094;28;20052;-66
2022/08/02 07:35:35;;;;;;;6.60;2.15;;;19.40;99.90;;;;;;5052379;28;20594;-65
2022/08/02 07:38:01;;;;;;;6.90;1.98;;;19.50;99.90;;;;;;5053723;28;20044;-64
2022/08/02 07:40:27;;;;;;;7.47;2.55;;;19.60;99.90;;;;;;5033681;28;20406;-65
2022/08/02 07:42:54;;;;;;;6.65;2.10;;;19.70;99.90;;;;;;5052413;28;20450;-67
2022/08/02 07:45:22;;;;;;;5.32;1.80;;;19.80;99.90;;;;;;5052236;28;20045;-66
2022/08/02 07:47:49;;;;;;;6.50;1.83;;;20.00;99.90;;;;;;5061329;28;20040;-68
2022/08/02 07:50:16;;;;;;;7.93;2.10;;;20.10;99.90;;;;;;5071624;28;20056;-66
2022/08/02 07:52:45;;;;;;;5.47;1.77;;;20.30;99.90;;;;;;5057255;28;20457;-64
2022/08/02 07:55:12;;;;;;;4.22;1.70;;;20.40;99.90;;;;;;5072140;28;20047;-66
2022/08/02 07:57:39;;;;;;;6.70;2.00;;;20.50;99.90;;;;;;5071735;28;20399;-66
2022/08/02 08:00:07;;;;;;;4.43;1.83;;;20.60;99.90;;;;;;5053959;28;20299;-65
2022/08/02 08:02:32;;;;;;;4.57;2.05;;;20.80;99.90;;;;;;5070881;28;20382;-66
2022/08/02 08:04:58;;;;;;;20.48;2.25;;;20.90;99.90;;;;;;5057852;28;20484;-65
2022/08/02 08:07:24;;;;;;;9.68;2.17;;;21.10;99.90;;;;;;5051900;28;20491;-68
2022/08/02 08:09:56;;;;;;;5.78;1.88;;;21.30;99.80;;;;;;5070107;28;20055;-66
2022/08/02 08:12:24;;;;;;;5.30;1.48;;;21.50;99.40;;;;;;5072248;28;20037;-69
2022/08/02 08:14:52;;;;;;;6.25;1.77;;;21.60;98.80;;;;;;5057395;28;20048;-66
2022/08/02 08:17:24;;;;;;;9.85;1.55;;;21.70;98.10;;;;;;5055885;28;20048;-66
2022/08/02 08:19:49;;;;;;;5.40;1.50;;;21.80;97.20;;;;;;5062741;28;20045;-68
2022/08/02 08:22:15;;;;;;;3.60;1.73;;;21.80;96.30;;;;;;5021963;28;20040;-67
2022/08/02 08:24:41;;;;;;;4.55;1.50;;;21.90;96.00;;;;;;5057430;28;20116;-66
2022/08/02 08:27:09;;;;;;;5.22;1.80;;;22.00;95.90;;;;;;5057684;28;20449;-66
2022/08/02 08:29:35;;;;;;;8.55;1.83;;;22.20;95.90;;;;;;5075906;28;20037;-65
2022/08/02 08:32:01;;;;;;;4.45;1.58;;;22.30;95.80;;;;;;5075668;28;20091;-66
2022/08/02 08:34:30;;;;;;;3.65;1.48;;;22.40;95.20;;;;;;5064634;28;20080;-66
2022/08/02 08:36:57;;;;;;;5.28;1.60;;;22.50;94.50;;;;;;5069201;28;20057;-66
2022/08/02 08:39:22;;;;;;;4.68;1.90;;;22.50;92.80;;;;;;5068477;28;20036;-66
2022/08/02 08:41:48;;;;;;;5.00;1.55;;;22.50;93.00;;;;;;5075699;28;20121;-67
2022/08/02 08:44:16;;;;;;;3.33;1.13;;;22.50;92.70;;;;;;5075291;28;20040;-67
2022/08/02 08:46:43;;;;;;;3.05;1.20;;;22.60;91.00;;;;;;5028211;28;20057;-67
2022/08/02 08:49:17;;;;;;;5.05;1.20;;;22.70;92.40;;;;;;5060252;28;20041;-67
2022/08/02 08:51:43;;;;;;;6.30;1.55;;;22.70;91.50;;;;;;5075609;28;20102;-65
2022/08/02 08:54:14;;;;;;;3.08;1.20;;;22.70;91.30;;;;;;5053160;28;20021;-65
2022/08/02 08:56:41;;;;;;;2.10;1.05;;;22.80;90.80;;;;;;5037694;28;20399;-66
2022/08/02 08:59:07;;;;;;;;;;;23.00;90.90;;;;;;5056148;28;20407;-66
2022/08/02 09:01:33;;;;;;;3.25;1.10;;;23.00;88.10;;;;;;5067543;28;19927;-66
2022/08/02 09:03:59;;;;;;;2.97;1.13;;;23.10;90.80;;;;;;5075302;28;20050;-65
2022/08/02 09:06:25;;;;;;;3.67;1.30;;;23.30;90.10;;;;;;5074586;28;20040;-66
2022/08/02 09:08:51;;;;;;;3.58;1.27;;;23.40;90.10;;;;;;5062237;28;20128;-65
2022/08/02 09:11:24;;;;;;;3.17;1.25;;;23.50;89.90;;;;;;5037735;28;20510;-64
2022/08/02 09:13:55;;;;;;;4.68;1.48;;;23.70;88.10;;;;;;5064289;28;20123;-66
2022/08/02 09:16:35;;;;;;;3.35;1.30;;;23.80;88.50;;;;;;5073772;28;20044;-64
2022/08/02 09:19:24;;;;;;;3.45;1.58;;;24.00;85.80;;;;;;5063153;28;20097;-64
2022/08/02 09:21:59;;;;;;;3.30;1.30;;;24.10;87.60;;;;;;5058131;28;20049;-65
2022/08/02 09:24:24;;;;;;;4.25;1.42;;;24.30;88.20;;;;;;5041625;28;20047;-65
2022/08/02 09:26:50;;;;;;;5.07;1.50;;;24.40;87.40;;;;;;5054235;28;20041;-65
2022/08/02 09:29:20;;;;;;;5.43;1.80;;;24.50;87.50;;;;;;5054377;28;20037;-65
2022/08/02 09:31:46;;;;;;;6.90;1.83;;;24.60;87.20;;;;;;5036605;28;20127;-65
2022/08/02 09:34:12;;;;;;;5.07;1.55;;;24.80;87.40;;;;;;5054920;28;20132;-65
2022/08/02 09:36:41;;;;;;;3.38;1.40;;;24.90;86.70;;;;;;5054511;28;20057;-65
2022/08/02 09:39:12;;;;;;;3.65;1.30;;;25.10;86.30;;;;;;5058407;28;20521;-64
2022/08/02 09:41:44;;;;;;;4.93;1.58;;;25.20;85.10;;;;;;5074395;28;20121;-64
2022/08/02 09:44:12;;;;;;;3.53;1.27;;;25.30;87.40;;;;;;5074198;28;20056;-65
2022/08/02 09:46:39;;;;;;;3.65;1.52;;;25.40;85.40;;;;;;5055787;28;20040;-67
2022/08/02 09:49:07;;;;;;;3.90;1.40;;;25.50;86.00;;;;;;5070059;28;20491;-64
2022/08/02 09:51:55;;;;;;;3.88;1.50;;;25.50;86.00;;;;;;5040928;28;20124;-65
2022/08/02 09:54:27;;;;;;;4.05;1.75;;;25.50;85.00;;;;;;5072796;28;20482;-66
2022/08/02 09:56:57;;;;;;;6.30;1.70;;;25.40;85.30;;;;;;5073252;28;20494;-64
2022/08/02 09:59:25;;;;;;;6.88;1.85;;;25.40;85.60;;;;;;5074073;28;20051;-65
2022/08/02 10:01:55;;;;;;;6.00;1.65;;;25.40;86.90;;;;;;5073554;28;20079;-64
2022/08/02 10:04:24;;;;;;;6.85;1.73;;;25.40;86.10;;;;;;5073871;28;20552;-66
2022/08/02 10:06:53;;;;;;;2.92;1.38;;;25.50;86.60;;;;;;5074126;28;20048;-65
2022/08/02 10:09:20;;;;;;;5.75;1.73;;;25.70;87.80;;;;;;5065182;28;20037;-65
2022/08/02 10:11:46;;;;;;;3.73;1.70;;;25.90;88.10;;;;;;5059315;28;20444;-65
2022/08/02 10:14:16;;;;;;;6.38;2.00;;;26.00;87.70;;;;;;5056075;28;20067;-66
2022/08/02 10:16:42;;;;;;;4.90;2.17;;;26.10;86.30;;;;;;5073558;28;20064;-65
2022/08/02 10:19:09;;;;;;;6.60;2.00;;;26.10;85.10;;;;;;5060244;28;20123;-67
2022/08/02 10:21:37;;;;;;;4.80;1.73;;;26.10;85.70;;;;;;5053572;28;20052;-65
2022/08/02 10:24:22;;;;;;;5.45;2.05;;;26.10;85.10;;;;;;5053732;28;20037;-65
2022/08/02 10:26:48;;;;;;;6.70;2.00;;;26.20;84.90;;;;;;5054318;28;20080;-65
2022/08/02 10:29:17;;;;;;;8.88;2.00;;;26.30;86.50;;;;;;5053343;28;20049;-66
2022/08/02 10:31:48;;;;;;;8.23;2.13;;;26.50;87.30;;;;;;5018932;28;20049;-65
2022/08/02 10:34:19;;;;;;;5.32;2.05;;;26.80;86.80;;;;;;5053120;28;20063;-66
2022/08/02 10:36:46;;;;;;;3.47;1.75;;;26.90;86.60;;;;;;5053325;28;20506;-65
2022/08/02 10:39:12;;;;;;;6.75;2.30;;;27.00;86.90;;;;;;5053156;28;20511;-63
2022/08/02 10:41:46;;;;;;;4.18;2.13;;;27.00;86.60;;;;;;5050663;28;20115;-68
2022/08/02 10:44:29;;;;;;;7.78;2.22;;;26.90;85.40;;;;;;5053713;28;20041;-66
2022/08/02 10:47:17;;;;;;;4.38;2.25;;;26.90;85.80;;;;;;5053473;28;20076;-65
2022/08/02 10:49:57;;;;;;;5.20;2.38;;;27.00;86.00;;;;;;5058759;28;20060;-66
2022/08/02 10:52:24;;;;;;;3.55;2.13;;;27.10;86.90;;;;;;5035710;28;20542;-65
2022/08/02 10:54:58;;;;;;;6.90;2.40;;;27.30;87.50;;;;;;5053292;28;20556;-65
2022/08/02 10:57:27;;;;;;;6.85;2.30;;;27.40;88.40;;;;;;5053504;28;20439;-65
2022/08/02 11:00:00;;;;;;;6.22;2.42;;;27.70;87.70;;;;;;5053134;28;20049;-65
2022/08/02 11:02:38;;;;;;;10.70;2.30;;;27.90;86.40;;;;;;5053420;28;20087;-64
2022/08/02 11:05:05;;;;;;;4.95;2.05;;;28.20;85.40;;;;;;5057388;28;20040;-65
2022/08/02 11:07:33;;;;;;;;;;;28.30;84.60;;;;;;5055085;28;20052;-63
2022/08/02 11:10:25;;;;;;;6.88;2.40;;;28.30;82.80;;;;;;5069077;28;20435;-66
2022/08/02 11:13:03;;;;;;;6.47;2.40;;;28.30;83.60;;;;;;5046227;28;20067;-66
2022/08/02 11:15:29;;;;;;;;;;;28.10;82.00;;;;;;5038797;28;20053;-65
2022/08/02 11:18:00;;;;;;;5.15;2.13;;;27.90;83.40;;;;;;5052953;28;20405;-66
2022/08/02 11:20:26;;;;;;;5.07;2.42;;;27.80;86.30;;;;;;5053100;28;20051;-65
2022/08/02 11:22:54;;;;;;;5.87;2.10;;;27.70;85.90;;;;;;5042515;28;20098;-66
2022/08/02 11:25:29;;;;;;;4.95;2.30;;;27.60;86.30;;;;;;5052417;28;21018;-65
2022/08/02 11:27:57;;;;;;;12.73;2.35;;;27.50;86.10;;;;;;5051070;28;20115;-67
2022/08/02 11:30:24;;;;;;;4.63;2.58;;;27.30;83.70;;;;;;5034387;28;20052;-65
2022/08/02 11:32:56;;;;;;;4.35;2.30;;;27.10;84.30;;;;;;5052251;28;20060;-65
2022/08/02 11:35:30;;;;;;;6.07;2.67;;;27.10;84.60;;;;;;5053597;28;20040;-65
2022/08/02 11:37:57;;;;;;;5.28;2.20;;;27.00;85.10;;;;;;5053034;28;20051;-64
2022/08/02 11:40:23;;;;;;;4.00;2.08;;;27.10;86.00;;;;;;5045405;28;20174;-64
2022/08/02 11:42:49;;;;;;;9.50;2.42;;;27.40;87.40;;;;;;5072243;28;20102;-64
2022/08/02 11:45:23;;;;;;;6.18;2.25;;;27.70;87.40;;;;;;5071789;28;20051;-65
2022/08/02 11:47:51;;;;;;;8.82;2.95;;;27.90;86.70;;;;;;5034568;28;20605;-65
2022/08/02 11:50:19;;;;;;;7.43;2.50;;;27.90;85.80;;;;;;5062787;28;20122;-65
2022/08/02 11:52:45;;;;;;;7.70;2.72;;;27.90;85.90;;;;;;5034455;28;20076;-65
2022/08/02 11:55:12;;;;;;;9.68;2.80;;;27.70;85.60;;;;;;5046885;28;20045;-65
2022/08/02 11:57:39;;;;;;;4.93;2.40;;;27.60;86.00;;;;;;5052197;28;20491;-65
2022/08/02 12:00:14;;;;;;;4.40;2.47;;;27.60;86.30;;;;;;5052009;28;20484;-66
2022/08/02 12:02:46;;;;;;;3.10;2.10;;;27.50;85.70;;;;;;5034007;28;20045;-65
2022/08/02 12:05:17;;;;;;;3.65;2.10;;;27.50;86.50;;;;;;5052041;28;20406;-67
2022/08/02 12:07:45;;;;;;;6.38;2.33;;;27.60;87.40;;;;;;5052563;28;20095;-65
2022/08/02 12:10:13;;;;;;;6.60;2.30;;;27.60;84.80;;;;;;5056803;28;20079;-65
2022/08/02 12:12:59;;;;;;;3.22;2.13;;;27.40;85.60;;;;;;5060090;28;20094;-64
2022/08/02 12:15:30;;;;;;;9.93;2.50;;;27.30;85.00;;;;;;5072267;28;20094;-65
2022/08/02 12:20:46;;;;;;;6.35;2.88;;;27.10;86.60;;;;;;5051503;28;20049;-65
2022/08/02 12:23:24;;;;;;;8.60;2.53;;;27.00;87.50;;;;;;5052063;28;20067;-67
2022/08/02 12:26:08;;;;;;;4.13;2.30;;;26.90;88.70;;;;;;5058144;28;20044;-64
2022/08/02 12:28:39;;;;;;;6.93;3.40;;;26.90;89.10;;;;;;5036383;28;20045;-65
2022/08/02 12:31:12;;;;;;;5.82;3.22;;;26.80;88.90;;;;;;5034730;28;20075;-66
2022/08/02 12:33:47;;;;;;;6.07;3.50;;;26.70;89.80;;;;;;5051619;28;20045;-66
2022/08/02 12:36:18;;;;;;;7.95;3.53;;;26.70;89.90;;;;;;5051917;28;20055;-65
2022/08/02 12:38:54;;;;;;;5.32;3.50;;;26.70;90.10;;;;;;5051517;28;20476;-65
2022/08/02 12:41:20;;;;;;;6.45;3.20;;;26.60;90.20;;;;;;5062462;28;20564;-64
2022/08/02 12:43:46;;;;;;;9.35;4.10;;;26.60;90.50;;;;;;5061219;28;20041;-65
2022/08/02 12:46:19;;;;;;;6.55;4.03;;;26.50;90.50;;;;;;5050375;28;20045;-65
2022/08/02 12:48:45;;;;;;;10.55;4.60;;;26.30;90.70;;;;;;5035211;28;20183;-65
2022/08/02 12:51:18;;;;;;;8.00;4.18;;;26.20;91.00;;;;;;5061573;28;20136;-65
2022/08/02 12:53:48;;;;;;;5.93;3.60;;;26.10;91.50;;;;;;5070811;28;20085;-65
2022/08/02 12:56:29;;;;;;;7.88;3.33;;;26.00;91.90;;;;;;5068848;28;20375;-67
2022/08/02 12:58:55;;;;;;;5.88;3.22;;;25.90;91.90;;;;;;5067585;28;20402;-66